sensor_id;sensor_type;location;lat;lon;timestamp;temperature;humidity
19888;DHT22;10106;51.332;12.336;2023-05-16T00:00:37;11.90;99.90
19888;DHT22;10106;51.332;12.336;2023-05-16T00:03:04;11.90;99.90
19888;DHT22;10106;51.332;12.336;2023-05-16T00:05:31;11.90;99.90
19888;DHT22;10106;51.332;12.336;2023-05-16T00:07:56;11.90;99.90
19888;DHT22;10106;51.332;12.336;2023-05-16T00:10:22;11.80;99.90
19888;DHT22;10106;51.332;12.336;2023-05-16T00:12:48;11.90;99.90
19888;DHT22;10106;51.332;12.336;2023-05-16T00:15:17;11.80;99.90
19888;DHT22;10106;51.332;12.336;2023-05-16T00:17:45;11.80;99.90
19888;DHT22;10106;51.332;12.336;2023-05-16T00:20:12;11.90;99.90
19888;DHT22;10106;51.332;12.336;2023-05-16T00:22:39;11.90;99.90
19888;DHT22;10106;51.332;12.336;2023-05-16T00:25:05;11.80;99.90
19888;DHT22;10106;51.332;12.336;2023-05-16T00:27:35;11.80;99.90
19888;DHT22;10106;51.332;12.336;2023-05-16T00:30:04;11.80;99.90
19888;DHT22;10106;51.332;12.336;2023-05-16T00:32:31;11.70;99.90
19888;DHT22;10106;51.332;12.336;2023-05-16T00:34:56;11.70;99.90
19888;DHT22;10106;51.332;12.336;2023-05-16T00:37:23;11.70;99.90
19888;DHT22;10106;51.332;12.336;2023-05-16T00:39:52;11.60;99.90
19888;DHT22;10106;51.332;12.336;2023-05-16T00:42:19;11.50;99.90
19888;DHT22;10106;51.332;12.336;2023-05-16T00:44:45;11.50;99.90
19888;DHT22;10106;51.332;12.336;2023-05-16T00:47:11;11.40;99.90
19888;DHT22;10106;51.332;12.336;2023-05-16T00:49:37;11.40;99.90
19888;DHT22;10106;51.332;12.336;2023-05-16T00:52:03;11.30;99.90
19888;DHT22;10106;51.332;12.336;2023-05-16T00:54:30;11.20;99.90
19888;DHT22;10106;51.332;12.336;2023-05-16T00:56:56;11.20;99.90
19888;DHT22;10106;51.332;12.336;2023-05-16T00:59:23;11.20;99.90
19888;DHT22;10106;51.332;12.336;2023-05-16T01:01:50;11.20;99.90
19888;DHT22;10106;51.332;12.336;2023-05-16T01:04:16;11.20;99.90
19888;DHT22;10106;51.332;12.336;2023-05-16T01:06:43;11.20;99.90
19888;DHT22;10106;51.332;12.336;2023-05-16T01:09:09;11.20;99.90
19888;DHT22;10106;51.332;12.336;2023-05-16T01:15:12;11.10;99.90
19888;DHT22;10106;51.332;12.336;2023-05-16T01:20:36;11.10;99.90
19888;DHT22;10106;51.332;12.336;2023-05-16T01:28:38;11.00;99.90
19888;DHT22;10106;51.332;12.336;2023-05-16T01:31:05;11.00;99.90
19888;DHT22;10106;51.332;12.336;2023-05-16T01:33:31;10.90;99.90
19888;DHT22;10106;51.332;12.336;2023-05-16T01:41:20;10.80;99.90
19888;DHT22;10106;51.332;12.336;2023-05-16T01:43:58;10.80;99.90
19888;DHT22;10106;51.332;12.336;2023-05-16T01:46:26;10.80;99.90
19888;DHT22;10106;51.332;12.336;2023-05-16T01:49:09;10.80;99.90
19888;DHT22;10106;51.332;12.336;2023-05-16T01:51:44;10.80;99.90
19888;DHT22;10106;51.332;12.336;2023-05-16T01:54:12;10.80;99.90
19888;DHT22;10106;51.332;12.336;2023-05-16T01:56:44;10.70;99.90
19888;DHT22;10106;51.332;12.336;2023-05-16T01:59:12;10.70;99.90
19888;DHT22;10106;51.332;12.336;2023-05-16T02:01:38;10.60;99.90
19888;DHT22;10106;51.332;12.336;2023-05-16T02:16:15;10.40;99.90
19888;DHT22;10106;51.332;12.336;2023-05-16T02:18:41;10.40;99.90
19888;DHT22;10106;51.332;12.336;2023-05-16T02:21:06;10.40;99.90
19888;DHT22;10106;51.332;12.336;2023-05-16T02:23:33;10.30;99.90
19888;DHT22;10106;51.332;12.336;2023-05-16T02:25:58;10.20;99.90
19888;DHT22;10106;51.332;12.336;2023-05-16T02:28:24;10.20;99.90
19888;DHT22;10106;51.332;12.336;2023-05-16T02:30:57;10.10;99.90
19888;DHT22;10106;51.332;12.336;2023-05-16T02:33:24;10.10;99.90
19888;DHT22;10106;51.332;12.336;2023-05-16T02:35:51;10.00;99.90
19888;DHT22;10106;51.332;12.336;2023-05-16T02:38:17;9.90;99.90
19888;DHT22;10106;51.332;12.336;2023-05-16T02:40:48;9.90;99.90
19888;DHT22;10106;51.332;12.336;2023-05-16T02:43:14;9.80;99.90
19888;DHT22;10106;51.332;12.336;2023-05-16T02:45:40;9.80;99.90
19888;DHT22;10106;51.332;12.336;2023-05-16T02:48:06;9.70;99.90
19888;DHT22;10106;51.332;12.336;2023-05-16T02:50:33;9.70;99.90
19888;DHT22;10106;51.332;12.336;2023-05-16T02:52:59;9.60;99.90
19888;DHT22;10106;51.332;12.336;2023-05-16T02:55:27;9.60;99.90
19888;DHT22;10106;51.332;12.336;2023-05-16T02:57:53;9.60;99.90
19888;DHT22;10106;51.332;12.336;2023-05-16T03:00:19;9.50;99.90
19888;DHT22;10106;51.332;12.336;2023-05-16T03:02:45;9.50;99.90
19888;DHT22;10106;51.332;12.336;2023-05-16T03:05:11;9.50;99.90
19888;DHT22;10106;51.332;12.336;2023-05-16T03:07:37;9.50;99.90
19888;DHT22;10106;51.332;12.336;2023-05-16T03:10:04;9.50;99.90
19888;DHT22;10106;51.332;12.336;2023-05-16T03:12:30;9.50;99.90
19888;DHT22;10106;51.332;12.336;2023-05-16T03:14:55;9.50;99.90
19888;DHT22;10106;51.332;12.336;2023-05-16T03:17:21;9.50;99.90
19888;DHT22;10106;51.332;12.336;2023-05-16T03:19:47;9.50;99.90
19888;DHT22;10106;51.332;12.336;2023-05-16T03:22:13;9.50;99.90
19888;DHT22;10106;51.332;12.336;2023-05-16T03:24:39;9.50;99.90
19888;DHT22;10106;51.332;12.336;2023-05-16T03:27:05;9.50;99.90
19888;DHT22;10106;51.332;12.336;2023-05-16T03:29:31;9.50;99.90
19888;DHT22;10106;51.332;12.336;2023-05-16T03:31:57;9.50;99.90
19888;DHT22;10106;51.332;12.336;2023-05-16T03:34:22;9.40;99.90
19888;DHT22;10106;51.332;12.336;2023-05-16T03:36:49;9.40;99.90
19888;DHT22;10106;51.332;12.336;2023-05-16T03:39:16;9.30;99.90
19888;DHT22;10106;51.332;12.336;2023-05-16T03:41:42;9.40;99.90
19888;DHT22;10106;51.332;12.336;2023-05-16T03:44:08;9.40;99.90
19888;DHT22;10106;51.332;12.336;2023-05-16T03:46:34;9.40;99.90
19888;DHT22;10106;51.332;12.336;2023-05-16T03:49:00;9.50;99.90
19888;DHT22;10106;51.332;12.336;2023-05-16T03:51:26;9.60;99.90
19888;DHT22;10106;51.332;12.336;2023-05-16T03:53:56;9.60;99.90
19888;DHT22;10106;51.332;12.336;2023-05-16T03:56:22;9.70;99.90
19888;DHT22;10106;51.332;12.336;2023-05-16T03:58:48;9.70;99.90
19888;DHT22;10106;51.332;12.336;2023-05-16T04:01:14;9.80;99.90
19888;DHT22;10106;51.332;12.336;2023-05-16T04:03:41;9.80;99.90
19888;DHT22;10106;51.332;12.336;2023-05-16T04:06:07;9.80;99.90
19888;DHT22;10106;51.332;12.336;2023-05-16T04:08:33;9.90;99.90
19888;DHT22;10106;51.332;12.336;2023-05-16T04:10:59;9.90;99.90
19888;DHT22;10106;51.332;12.336;2023-05-16T04:13:24;9.90;99.90
19888;DHT22;10106;51.332;12.336;2023-05-16T04:15:50;9.90;99.90
19888;DHT22;10106;51.332;12.336;2023-05-16T04:18:16;10.00;99.90
19888;DHT22;10106;51.332;12.336;2023-05-16T04:20:42;10.00;99.90
19888;DHT22;10106;51.332;12.336;2023-05-16T04:23:09;10.00;99.90
19888;DHT22;10106;51.332;12.336;2023-05-16T04:25:39;10.00;99.90
19888;DHT22;10106;51.332;12.336;2023-05-16T04:28:05;10.10;99.90
19888;DHT22;10106;51.332;12.336;2023-05-16T04:30:32;10.10;99.90
19888;DHT22;10106;51.332;12.336;2023-05-16T04:32:58;10.10;99.90
19888;DHT22;10106;51.332;12.336;2023-05-16T04:35:26;10.20;99.90
19888;DHT22;10106;51.332;12.336;2023-05-16T04:37:52;10.20;99.90
19888;DHT22;10106;51.332;12.336;2023-05-16T04:40:18;10.30;99.90
19888;DHT22;10106;51.332;12.336;2023-05-16T04:42:44;10.30;99.90
19888;DHT22;10106;51.332;12.336;2023-05-16T04:45:10;10.40;99.90
19888;DHT22;10106;51.332;12.336;2023-05-16T04:47:36;10.40;99.90
19888;DHT22;10106;51.332;12.336;2023-05-16T04:50:03;10.40;99.90
19888;DHT22;10106;51.332;12.336;2023-05-16T04:52:29;10.30;99.90
19888;DHT22;10106;51.332;12.336;2023-05-16T04:54:54;10.30;99.90
19888;DHT22;10106;51.332;12.336;2023-05-16T04:57:25;10.20;99.90
19888;DHT22;10106;51.332;12.336;2023-05-16T04:59:52;10.20;99.90
19888;DHT22;10106;51.332;12.336;2023-05-16T05:07:28;10.30;99.90
19888;DHT22;10106;51.332;12.336;2023-05-16T05:09:54;10.30;99.90
19888;DHT22;10106;51.332;12.336;2023-05-16T05:12:22;10.40;99.90
19888;DHT22;10106;51.332;12.336;2023-05-16T05:14:51;10.40;99.90
19888;DHT22;10106;51.332;12.336;2023-05-16T05:17:19;10.40;99.90
19888;DHT22;10106;51.332;12.336;2023-05-16T05:19:49;10.50;99.90
19888;DHT22;10106;51.332;12.336;2023-05-16T05:22:14;10.50;99.90
19888;DHT22;10106;51.332;12.336;2023-05-16T05:24:40;10.50;99.90
19888;DHT22;10106;51.332;12.336;2023-05-16T05:27:06;10.60;99.90
19888;DHT22;10106;51.332;12.336;2023-05-16T05:29:32;10.60;99.90
19888;DHT22;10106;51.332;12.336;2023-05-16T05:31:58;10.60;99.90
19888;DHT22;10106;51.332;12.336;2023-05-16T05:34:24;10.60;99.90
19888;DHT22;10106;51.332;12.336;2023-05-16T05:36:50;10.60;99.90
19888;DHT22;10106;51.332;12.336;2023-05-16T05:39:15;10.60;99.90
19888;DHT22;10106;51.332;12.336;2023-05-16T05:41:45;10.70;99.90
19888;DHT22;10106;51.332;12.336;2023-05-16T05:44:11;10.80;99.90
19888;DHT22;10106;51.332;12.336;2023-05-16T05:46:37;10.90;99.90
19888;DHT22;10106;51.332;12.336;2023-05-16T05:49:06;11.00;99.90
19888;DHT22;10106;51.332;12.336;2023-05-16T05:51:32;11.00;99.90
19888;DHT22;10106;51.332;12.336;2023-05-16T05:53:58;11.00;99.90
19888;DHT22;10106;51.332;12.336;2023-05-16T05:56:24;11.10;99.90
19888;DHT22;10106;51.332;12.336;2023-05-16T05:58:50;11.10;99.90
19888;DHT22;10106;51.332;12.336;2023-05-16T06:01:16;11.10;99.90
19888;DHT22;10106;51.332;12.336;2023-05-16T06:03:43;11.10;99.90
19888;DHT22;10106;51.332;12.336;2023-05-16T06:06:08;11.20;99.90
19888;DHT22;10106;51.332;12.336;2023-05-16T06:08:34;11.20;99.90
19888;DHT22;10106;51.332;12.336;2023-05-16T06:11:00;11.20;99.90
19888;DHT22;10106;51.332;12.336;2023-05-16T06:13:26;11.30;99.90
19888;DHT22;10106;51.332;12.336;2023-05-16T06:15:53;11.20;99.90
19888;DHT22;10106;51.332;12.336;2023-05-16T06:18:19;11.30;99.90
19888;DHT22;10106;51.332;12.336;2023-05-16T06:20:45;11.40;99.90
19888;DHT22;10106;51.332;12.336;2023-05-16T06:23:11;11.40;99.90
19888;DHT22;10106;51.332;12.336;2023-05-16T06:25:37;11.40;99.90
19888;DHT22;10106;51.332;12.336;2023-05-16T06:28:03;11.50;99.90
19888;DHT22;10106;51.332;12.336;2023-05-16T06:30:29;11.60;99.90
19888;DHT22;10106;51.332;12.336;2023-05-16T06:32:55;11.70;99.90
19888;DHT22;10106;51.332;12.336;2023-05-16T06:35:21;11.80;99.90
19888;DHT22;10106;51.332;12.336;2023-05-16T06:37:47;11.80;99.90
19888;DHT22;10106;51.332;12.336;2023-05-16T06:40:13;11.80;99.90
19888;DHT22;10106;51.332;12.336;2023-05-16T06:42:39;11.80;99.90
19888;DHT22;10106;51.332;12.336;2023-05-16T06:45:05;11.80;99.90
19888;DHT22;10106;51.332;12.336;2023-05-16T06:47:32;11.80;99.90
19888;DHT22;10106;51.332;12.336;2023-05-16T06:49:57;11.80;99.90
19888;DHT22;10106;51.332;12.336;2023-05-16T06:52:24;11.70;99.90
19888;DHT22;10106;51.332;12.336;2023-05-16T06:54:49;11.70;99.90
19888;DHT22;10106;51.332;12.336;2023-05-16T06:57:16;11.60;99.90
19888;DHT22;10106;51.332;12.336;2023-05-16T06:59:42;11.60;99.90
19888;DHT22;10106;51.332;12.336;2023-05-16T07:02:08;11.50;99.90
19888;DHT22;10106;51.332;12.336;2023-05-16T07:04:34;11.50;99.90
19888;DHT22;10106;51.332;12.336;2023-05-16T07:07:02;11.50;99.90
19888;DHT22;10106;51.332;12.336;2023-05-16T07:09:29;11.50;99.90
19888;DHT22;10106;51.332;12.336;2023-05-16T07:11:55;11.50;99.90
19888;DHT22;10106;51.332;12.336;2023-05-16T07:14:21;11.60;99.90
19888;DHT22;10106;51.332;12.336;2023-05-16T07:16:47;11.60;99.90
19888;DHT22;10106;51.332;12.336;2023-05-16T07:19:13;11.60;99.90
19888;DHT22;10106;51.332;12.336;2023-05-16T07:21:39;11.60;99.90
19888;DHT22;10106;51.332;12.336;2023-05-16T07:24:06;11.60;99.90
19888;DHT22;10106;51.332;12.336;2023-05-16T07:26:32;11.70;99.90
19888;DHT22;10106;51.332;12.336;2023-05-16T07:28:58;11.70;99.90
19888;DHT22;10106;51.332;12.336;2023-05-16T07:31:23;11.80;99.90
19888;DHT22;10106;51.332;12.336;2023-05-16T07:33:50;11.80;99.90
19888;DHT22;10106;51.332;12.336;2023-05-16T07:36:16;11.80;99.90
19888;DHT22;10106;51.332;12.336;2023-05-16T07:38:42;11.90;99.90
19888;DHT22;10106;51.332;12.336;2023-05-16T07:41:08;12.10;99.90
19888;DHT22;10106;51.332;12.336;2023-05-16T07:43:34;12.20;99.90
19888;DHT22;10106;51.332;12.336;2023-05-16T07:46:01;12.20;99.90
19888;DHT22;10106;51.332;12.336;2023-05-16T07:48:27;12.30;99.90
19888;DHT22;10106;51.332;12.336;2023-05-16T07:50:53;12.40;99.90
19888;DHT22;10106;51.332;12.336;2023-05-16T07:53:20;12.40;99.90
19888;DHT22;10106;51.332;12.336;2023-05-16T07:55:46;12.60;99.90
19888;DHT22;10106;51.332;12.336;2023-05-16T07:58:12;12.70;99.90
19888;DHT22;10106;51.332;12.336;2023-05-16T08:00:38;12.90;99.90
19888;DHT22;10106;51.332;12.336;2023-05-16T08:03:04;13.10;99.90
19888;DHT22;10106;51.332;12.336;2023-05-16T08:05:31;13.10;99.90
19888;DHT22;10106;51.332;12.336;2023-05-16T08:07:57;13.20;99.90
19888;DHT22;10106;51.332;12.336;2023-05-16T08:10:23;13.10;99.90
19888;DHT22;10106;51.332;12.336;2023-05-16T08:12:49;13.00;99.90
19888;DHT22;10106;51.332;12.336;2023-05-16T08:15:15;12.90;99.90
19888;DHT22;10106;51.332;12.336;2023-05-16T08:17:41;13.20;99.90
19888;DHT22;10106;51.332;12.336;2023-05-16T08:20:07;13.30;99.90
19888;DHT22;10106;51.332;12.336;2023-05-16T08:22:33;13.60;99.90
19888;DHT22;10106;51.332;12.336;2023-05-16T08:24:59;13.80;99.90
19888;DHT22;10106;51.332;12.336;2023-05-16T08:27:28;14.20;99.90
19888;DHT22;10106;51.332;12.336;2023-05-16T08:29:54;14.70;99.90
19888;DHT22;10106;51.332;12.336;2023-05-16T08:32:20;15.00;99.90
19888;DHT22;10106;51.332;12.336;2023-05-16T08:34:49;15.00;99.90
19888;DHT22;10106;51.332;12.336;2023-05-16T08:37:15;14.90;99.90
19888;DHT22;10106;51.332;12.336;2023-05-16T08:39:41;15.20;99.90
19888;DHT22;10106;51.332;12.336;2023-05-16T08:42:07;15.70;99.90
19888;DHT22;10106;51.332;12.336;2023-05-16T08:44:33;16.30;99.90
19888;DHT22;10106;51.332;12.336;2023-05-16T08:47:38;16.20;99.90
19888;DHT22;10106;51.332;12.336;2023-05-16T08:49:57;15.80;99.90
19888;DHT22;10106;51.332;12.336;2023-05-16T08:52:27;15.40;99.90
19888;DHT22;10106;51.332;12.336;2023-05-16T08:55:01;14.80;99.90
19888;DHT22;10106;51.332;12.336;2023-05-16T08:57:31;14.30;99.90
19888;DHT22;10106;51.332;12.336;2023-05-16T08:59:59;14.30;99.90
19888;DHT22;10106;51.332;12.336;2023-05-16T09:02:26;14.50;99.90
19888;DHT22;10106;51.332;12.336;2023-05-16T09:05:18;14.80;99.90
19888;DHT22;10106;51.332;12.336;2023-05-16T09:07:44;15.10;99.90
19888;DHT22;10106;51.332;12.336;2023-05-16T09:10:11;15.30;99.90
19888;DHT22;10106;51.332;12.336;2023-05-16T09:12:38;15.30;99.90
19888;DHT22;10106;51.332;12.336;2023-05-16T09:15:05;15.40;99.90
19888;DHT22;10106;51.332;12.336;2023-05-16T09:17:36;15.40;99.90
19888;DHT22;10106;51.332;12.336;2023-05-16T09:20:17;15.30;99.90
19888;DHT22;10106;51.332;12.336;2023-05-16T09:25:21;14.70;99.90
19888;DHT22;10106;51.332;12.336;2023-05-16T09:27:54;14.30;99.90
19888;DHT22;10106;51.332;12.336;2023-05-16T09:32:53;13.70;99.90
19888;DHT22;10106;51.332;12.336;2023-05-16T09:35:20;13.70;99.90
19888;DHT22;10106;51.332;12.336;2023-05-16T09:37:47;13.70;99.90
19888;DHT22;10106;51.332;12.336;2023-05-16T09:40:14;13.80;99.90
19888;DHT22;10106;51.332;12.336;2023-05-16T09:42:41;13.90;99.90
19888;DHT22;10106;51.332;12.336;2023-05-16T09:45:12;13.90;99.90
19888;DHT22;10106;51.332;12.336;2023-05-16T09:47:38;13.80;99.90
19888;DHT22;10106;51.332;12.336;2023-05-16T09:50:14;13.80;99.90
19888;DHT22;10106;51.332;12.336;2023-05-16T09:52:41;13.70;99.90
19888;DHT22;10106;51.332;12.336;2023-05-16T09:55:08;13.60;99.90
19888;DHT22;10106;51.332;12.336;2023-05-16T09:57:38;13.60;99.90
19888;DHT22;10106;51.332;12.336;2023-05-16T10:00:10;13.50;99.90
19888;DHT22;10106;51.332;12.336;2023-05-16T10:02:40;13.60;99.90
19888;DHT22;10106;51.332;12.336;2023-05-16T10:05:06;13.50;99.90
19888;DHT22;10106;51.332;12.336;2023-05-16T10:07:33;13.30;99.90
19888;DHT22;10106;51.332;12.336;2023-05-16T10:10:06;13.30;99.90
19888;DHT22;10106;51.332;12.336;2023-05-16T10:12:33;13.20;99.90
19888;DHT22;10106;51.332;12.336;2023-05-16T10:15:03;13.00;99.90
19888;DHT22;10106;51.332;12.336;2023-05-16T10:17:33;13.10;99.90
19888;DHT22;10106;51.332;12.336;2023-05-16T10:20:07;13.10;99.90
19888;DHT22;10106;51.332;12.336;2023-05-16T10:22:35;13.20;99.90
19888;DHT22;10106;51.332;12.336;2023-05-16T10:25:23;13.40;99.90
19888;DHT22;10106;51.332;12.336;2023-05-16T10:27:50;13.40;99.90
19888;DHT22;10106;51.332;12.336;2023-05-16T10:30:17;13.50;99.90
19888;DHT22;10106;51.332;12.336;2023-05-16T10:32:45;13.90;99.90
19888;DHT22;10106;51.332;12.336;2023-05-16T10:35:12;14.00;99.90
19888;DHT22;10106;51.332;12.336;2023-05-16T10:37:38;14.10;99.90
19888;DHT22;10106;51.332;12.336;2023-05-16T10:40:07;14.00;99.90
19888;DHT22;10106;51.332;12.336;2023-05-16T10:42:34;13.80;99.90
19888;DHT22;10106;51.332;12.336;2023-05-16T10:45:19;13.70;99.90
19888;DHT22;10106;51.332;12.336;2023-05-16T10:47:56;13.60;99.90
19888;DHT22;10106;51.332;12.336;2023-05-16T10:50:39;13.40;99.90
19888;DHT22;10106;51.332;12.336;2023-05-16T10:53:17;13.30;99.90
19888;DHT22;10106;51.332;12.336;2023-05-16T10:55:48;13.30;99.90
19888;DHT22;10106;51.332;12.336;2023-05-16T10:58:45;13.20;99.90
19888;DHT22;10106;51.332;12.336;2023-05-16T11:01:21;13.20;99.90
19888;DHT22;10106;51.332;12.336;2023-05-16T11:09:17;13.10;99.90
19888;DHT22;10106;51.332;12.336;2023-05-16T11:17:21;13.10;99.90
19888;DHT22;10106;51.332;12.336;2023-05-16T11:22:23;13.50;99.90
19888;DHT22;10106;51.332;12.336;2023-05-16T11:34:08;14.90;99.90
19888;DHT22;10106;51.332;12.336;2023-05-16T11:39:48;15.20;99.90
19888;DHT22;10106;51.332;12.336;2023-05-16T11:42:14;14.70;99.90
19888;DHT22;10106;51.332;12.336;2023-05-16T11:44:40;14.50;99.90
19888;DHT22;10106;51.332;12.336;2023-05-16T11:47:07;14.40;99.90
19888;DHT22;10106;51.332;12.336;2023-05-16T11:49:33;14.40;99.90
19888;DHT22;10106;51.332;12.336;2023-05-16T11:52:00;14.30;99.90
19888;DHT22;10106;51.332;12.336;2023-05-16T11:54:28;14.30;99.90
19888;DHT22;10106;51.332;12.336;2023-05-16T11:56:53;14.30;99.90
19888;DHT22;10106;51.332;12.336;2023-05-16T11:59:19;14.50;99.90
19888;DHT22;10106;51.332;12.336;2023-05-16T12:01:46;14.70;99.90
19888;DHT22;10106;51.332;12.336;2023-05-16T12:04:16;14.90;99.90
19888;DHT22;10106;51.332;12.336;2023-05-16T12:06:42;15.10;99.90
19888;DHT22;10106;51.332;12.336;2023-05-16T12:09:13;15.00;99.90
19888;DHT22;10106;51.332;12.336;2023-05-16T12:11:41;15.10;99.90
19888;DHT22;10106;51.332;12.336;2023-05-16T12:14:09;15.40;99.90
19888;DHT22;10106;51.332;12.336;2023-05-16T12:16:36;15.50;99.90
19888;DHT22;10106;51.332;12.336;2023-05-16T12:19:04;15.40;99.90
19888;DHT22;10106;51.332;12.336;2023-05-16T12:21:34;15.40;99.90
19888;DHT22;10106;51.332;12.336;2023-05-16T12:24:00;15.50;99.90
19888;DHT22;10106;51.332;12.336;2023-05-16T12:26:31;15.20;99.90
19888;DHT22;10106;51.332;12.336;2023-05-16T12:29:03;15.30;99.90
19888;DHT22;10106;51.332;12.336;2023-05-16T12:31:31;15.50;99.90
19888;DHT22;10106;51.332;12.336;2023-05-16T12:34:01;15.80;99.90
19888;DHT22;10106;51.332;12.336;2023-05-16T12:36:31;16.00;99.90
19888;DHT22;10106;51.332;12.336;2023-05-16T12:39:01;16.10;99.90
19888;DHT22;10106;51.332;12.336;2023-05-16T12:41:30;16.20;99.90
19888;DHT22;10106;51.332;12.336;2023-05-16T12:44:16;16.30;99.90
19888;DHT22;10106;51.332;12.336;2023-05-16T12:46:50;16.50;99.90
19888;DHT22;10106;51.332;12.336;2023-05-16T12:49:23;16.50;99.90
19888;DHT22;10106;51.332;12.336;2023-05-16T12:51:52;16.50;99.90
19888;DHT22;10106;51.332;12.336;2023-05-16T12:54:18;16.40;99.90
19888;DHT22;10106;51.332;12.336;2023-05-16T12:56:45;16.50;99.90
19888;DHT22;10106;51.332;12.336;2023-05-16T12:59:11;16.70;99.90
19888;DHT22;10106;51.332;12.336;2023-05-16T13:01:37;17.30;99.90
19888;DHT22;10106;51.332;12.336;2023-05-16T13:04:03;17.50;99.90
19888;DHT22;10106;51.332;12.336;2023-05-16T13:06:29;17.40;99.20
19888;DHT22;10106;51.332;12.336;2023-05-16T13:08:58;17.30;98.80
19888;DHT22;10106;51.332;12.336;2023-05-16T13:11:27;17.60;98.00
19888;DHT22;10106;51.332;12.336;2023-05-16T13:13:53;17.90;97.20
19888;DHT22;10106;51.332;12.336;2023-05-16T13:16:19;18.20;95.40
19888;DHT22;10106;51.332;12.336;2023-05-16T13:18:45;18.20;94.50
19888;DHT22;10106;51.332;12.336;2023-05-16T13:21:15;18.40;93.30
19888;DHT22;10106;51.332;12.336;2023-05-16T13:24:01;18.00;92.00
19888;DHT22;10106;51.332;12.336;2023-05-16T13:26:27;17.40;92.90
19888;DHT22;10106;51.332;12.336;2023-05-16T13:28:53;17.10;92.70
19888;DHT22;10106;51.332;12.336;2023-05-16T13:31:21;17.00;93.40
19888;DHT22;10106;51.332;12.336;2023-05-16T13:33:47;16.80;92.90
19888;DHT22;10106;51.332;12.336;2023-05-16T13:36:17;16.90;93.10
19888;DHT22;10106;51.332;12.336;2023-05-16T13:38:46;17.30;93.30
19888;DHT22;10106;51.332;12.336;2023-05-16T13:41:12;17.60;92.90
19888;DHT22;10106;51.332;12.336;2023-05-16T13:43:38;17.60;92.90
19888;DHT22;10106;51.332;12.336;2023-05-16T13:46:04;17.40;92.70
19888;DHT22;10106;51.332;12.336;2023-05-16T13:48:30;17.40;92.40
19888;DHT22;10106;51.332;12.336;2023-05-16T13:50:56;17.30;92.10
19888;DHT22;10106;51.332;12.336;2023-05-16T13:53:21;16.90;93.00
19888;DHT22;10106;51.332;12.336;2023-05-16T13:55:47;16.40;92.10
19888;DHT22;10106;51.332;12.336;2023-05-16T13:58:15;16.30;91.80
19888;DHT22;10106;51.332;12.336;2023-05-16T14:00:41;16.10;91.20
19888;DHT22;10106;51.332;12.336;2023-05-16T14:03:07;16.30;91.00
19888;DHT22;10106;51.332;12.336;2023-05-16T14:05:33;16.30;90.20
19888;DHT22;10106;51.332;12.336;2023-05-16T14:07:58;16.60;90.30
19888;DHT22;10106;51.332;12.336;2023-05-16T14:10:24;16.20;90.00
19888;DHT22;10106;51.332;12.336;2023-05-16T14:12:54;16.00;89.50
19888;DHT22;10106;51.332;12.336;2023-05-16T14:15:20;16.10;86.90
19888;DHT22;10106;51.332;12.336;2023-05-16T14:17:46;16.20;88.30
19888;DHT22;10106;51.332;12.336;2023-05-16T14:20:12;16.30;89.50
19888;DHT22;10106;51.332;12.336;2023-05-16T14:22:39;16.40;89.60
19888;DHT22;10106;51.332;12.336;2023-05-16T14:25:06;16.30;90.20
19888;DHT22;10106;51.332;12.336;2023-05-16T14:27:32;16.30;90.30
19888;DHT22;10106;51.332;12.336;2023-05-16T14:29:58;16.20;90.60
19888;DHT22;10106;51.332;12.336;2023-05-16T14:32:26;16.30;90.40
19888;DHT22;10106;51.332;12.336;2023-05-16T14:34:52;16.30;88.80
19888;DHT22;10106;51.332;12.336;2023-05-16T14:37:18;16.30;89.10
19888;DHT22;10106;51.332;12.336;2023-05-16T14:39:46;16.30;88.70
19888;DHT22;10106;51.332;12.336;2023-05-16T14:42:14;16.30;88.70
19888;DHT22;10106;51.332;12.336;2023-05-16T14:44:39;16.40;87.80
19888;DHT22;10106;51.332;12.336;2023-05-16T14:47:05;16.30;86.80
19888;DHT22;10106;51.332;12.336;2023-05-16T14:49:32;16.40;87.60
19888;DHT22;10106;51.332;12.336;2023-05-16T14:51:58;16.50;87.80
19888;DHT22;10106;51.332;12.336;2023-05-16T14:54:24;16.50;84.90
19888;DHT22;10106;51.332;12.336;2023-05-16T14:56:53;16.50;85.20
19888;DHT22;10106;51.332;12.336;2023-05-16T14:59:18;16.30;82.90
19888;DHT22;10106;51.332;12.336;2023-05-16T15:01:45;16.30;82.30
19888;DHT22;10106;51.332;12.336;2023-05-16T15:04:13;16.20;83.20
19888;DHT22;10106;51.332;12.336;2023-05-16T15:06:40;16.20;82.10
19888;DHT22;10106;51.332;12.336;2023-05-16T15:09:06;16.00;82.70
19888;DHT22;10106;51.332;12.336;2023-05-16T15:11:32;16.00;83.30
19888;DHT22;10106;51.332;12.336;2023-05-16T15:13:58;16.10;83.40
19888;DHT22;10106;51.332;12.336;2023-05-16T15:16:24;16.40;82.90
19888;DHT22;10106;51.332;12.336;2023-05-16T15:18:50;16.50;82.20
19888;DHT22;10106;51.332;12.336;2023-05-16T15:21:16;16.70;81.90
19888;DHT22;10106;51.332;12.336;2023-05-16T15:23:42;16.70;81.10
19888;DHT22;10106;51.332;12.336;2023-05-16T15:26:08;16.50;80.60
19888;DHT22;10106;51.332;12.336;2023-05-16T15:28:37;16.40;79.50
19888;DHT22;10106;51.332;12.336;2023-05-16T15:31:03;16.20;79.80
19888;DHT22;10106;51.332;12.336;2023-05-16T15:33:30;16.10;79.40
19888;DHT22;10106;51.332;12.336;2023-05-16T15:35:55;16.00;78.80
19888;DHT22;10106;51.332;12.336;2023-05-16T15:38:23;16.00;79.40
19888;DHT22;10106;51.332;12.336;2023-05-16T15:40:48;16.00;78.70
19888;DHT22;10106;51.332;12.336;2023-05-16T15:43:17;16.00;78.00
19888;DHT22;10106;51.332;12.336;2023-05-16T15:45:43;16.00;78.90
19888;DHT22;10106;51.332;12.336;2023-05-16T15:48:09;15.90;77.80
19888;DHT22;10106;51.332;12.336;2023-05-16T15:50:35;15.80;77.80
19888;DHT22;10106;51.332;12.336;2023-05-16T15:53:01;15.80;78.80
19888;DHT22;10106;51.332;12.336;2023-05-16T15:55:28;15.80;79.30
19888;DHT22;10106;51.332;12.336;2023-05-16T15:57:55;15.90;78.30
